5 luglio 2022

Tempo Codice Tempo metereologico Temp. Vista Base nuvolosa Vento METAR/SPECI
8:50 pm
V
63 °F 6¼ mi+ - 300° 300° 10 kt METAR EDDH 051850Z AUTO 30010KT 9999 FEW032 17/09 Q1021 NOSIG
8:20 pm
V
64 °F 6¼ mi+ - 300° 300° 10 kt METAR EDDH 051820Z AUTO 30010KT CAVOK 18/10 Q1021 NOSIG
7:50 pm
V
64 °F 6¼ mi+ - 290° 290° 12 kt METAR EDDH 051750Z AUTO 29012KT 9999 FEW033 18/10 Q1021 NOSIG
7:20 pm
V
64 °F 6¼ mi+ - 300° 300° 12 kt METAR EDDH 051720Z AUTO 30012KT 9999 FEW034 18/10 Q1021 NOSIG
6:50 pm
V
64 °F 6¼ mi+ - 300° 300° 12 kt METAR EDDH 051650Z AUTO 30012KT 9999 FEW035 18/10 Q1021 NOSIG
6:20 pm
V
66 °F 6¼ mi+ - 280° 280° 12 kt METAR EDDH 051620Z AUTO 28012KT 260V330 9999 FEW032 19/10 Q1021 NOSIG
5:50 pm
V
66 °F 6¼ mi+ 3.600 ft 310° 310° 12 kt METAR EDDH 051550Z AUTO 31012KT 9999 BKN036 19/10 Q1021 NOSIG
5:20 pm
V
66 °F 6¼ mi+ - 290° 290° 9 kt METAR EDDH 051520Z AUTO 29009KT 260V320 9999 FEW043 19/11 Q1021 NOSIG
4:50 pm
V
64 °F 6¼ mi+ - 290° 290° 9 kt METAR EDDH 051450Z AUTO 29009KT 270V330 9999 SCT049 18/10 Q1021 NOSIG
4:20 pm
V
66 °F 6¼ mi+ - 310° 310° 13 kt METAR EDDH 051420Z AUTO 31013KT CAVOK 19/10 Q1021 NOSIG
3:50 pm
V
64 °F 6¼ mi+ - 310° 310° 12 kt METAR EDDH 051350Z AUTO 31012KT 9999 FEW045 18/10 Q1020 NOSIG
3:20 pm
V
66 °F 6¼ mi+ - 280° 280° 11 kt METAR EDDH 051320Z AUTO 28011KT 240V310 CAVOK 19/09 Q1020 NOSIG
2:50 pm
V
68 °F 6¼ mi+ - 270° 270° 10 kt METAR EDDH 051250Z AUTO 27010KT 240V300 9999 SCT049 20/09 Q1020 NOSIG
2:20 pm
V
68 °F 6¼ mi+ - 280° 280° 13 kt METAR EDDH 051220Z AUTO 28013KT 240V310 CAVOK 20/08 Q1020 NOSIG
1:50 pm
V
70 °F 6¼ mi+ - 270° 270° 12 kt METAR EDDH 051150Z AUTO 27012KT CAVOK 21/08 Q1020 NOSIG
1:20 pm
V
68 °F 6¼ mi+ - 280° 280° 12 kt METAR EDDH 051120Z AUTO 28012KT 240V310 CAVOK 20/07 Q1020 NOSIG
12:50 pm
V
68 °F 6¼ mi+ - 250° 250° 12 kt METAR EDDH 051050Z AUTO 25012KT 210V300 CAVOK 20/08 Q1020 NOSIG
12:20 pm
V
68 °F 6¼ mi+ - 240° 240° 13 kt METAR EDDH 051020Z AUTO 24013KT 210V280 9999 FEW047 20/08 Q1021 NOSIG
11:50 am
V
66 °F 6¼ mi+ - 270° 270° 10 kt METAR EDDH 050950Z AUTO 27010KT 230V300 CAVOK 19/09 Q1021 NOSIG
11:20 am
V
64 °F 6¼ mi+ - 260° 260° 12 kt METAR EDDH 050920Z AUTO 26012KT 230V300 9999 FEW045 18/08 Q1020 NOSIG
10:50 am
V
66 °F 6¼ mi+ - 270° 270° 9 kt METAR EDDH 050850Z AUTO 27009KT 220V330 9999 FEW045 19/09 Q1020 NOSIG
10:20 am
V
66 °F 6¼ mi+ - 260° 260° 10 kt METAR EDDH 050820Z AUTO 26010KT 220V300 9999 FEW036 19/09 Q1020 NOSIG
9:50 am
V
64 °F 6¼ mi+ - 260° 260° 9 kt METAR EDDH 050750Z AUTO 26009KT 230V300 CAVOK 18/11 Q1020 NOSIG
9:20 am
V
64 °F 6¼ mi+ - 270° 270° 10 kt METAR EDDH 050720Z AUTO 27010KT 240V310 9999 FEW027 18/11 Q1020 NOSIG
8:50 am
V
63 °F 6¼ mi+ - 230° 230° 7 kt METAR EDDH 050650Z AUTO 23007KT CAVOK 17/11 Q1020 NOSIG
8:20 am
V
61 °F 6¼ mi+ - 250° 250° 8 kt METAR EDDH 050620Z AUTO 25008KT 220V280 CAVOK 16/11 Q1020 NOSIG
7:50 am
V
61 °F 6¼ mi+ - 240° 240° 7 kt METAR EDDH 050550Z AUTO 24007KT 200V270 CAVOK 16/11 Q1020 NOSIG
7:20 am
V
59 °F 6¼ mi+ - 240° 240° 6 kt METAR EDDH 050520Z AUTO 24006KT CAVOK 15/11 Q1020 NOSIG
6:50 am
V
57 °F 6¼ mi+ - 230° 230° 6 kt METAR EDDH 050450Z AUTO 23006KT 200V260 CAVOK 14/11 Q1020 NOSIG
6:20 am
V
55 °F 6¼ mi+ - 240° 240° 6 kt METAR EDDH 050420Z AUTO 24006KT CAVOK 13/11 Q1019 NOSIG
5:50 am
V
54 °F 6¼ mi+ - 220° 220° 4 kt METAR EDDH 050350Z AUTO 22004KT CAVOK 12/10 Q1019 NOSIG
5:20 am
V
52 °F 6¼ mi+ - 230° 230° 6 kt METAR EDDH 050320Z AUTO 23006KT CAVOK 11/10 Q1019 NOSIG
4:50 am
V
52 °F 6¼ mi+ - 230° 230° 6 kt METAR EDDH 050250Z AUTO 23006KT CAVOK 11/10 Q1019 NOSIG
4:20 am
V
54 °F 6¼ mi+ - 240° 240° 5 kt METAR EDDH 050220Z AUTO 24005KT CAVOK 12/10 Q1019 NOSIG
3:50 am
V
54 °F 6¼ mi+ - 240° 240° 5 kt METAR EDDH 050150Z AUTO 24005KT CAVOK 12/10 Q1019 NOSIG
3:20 am
V
55 °F 6¼ mi+ - 250° 250° 5 kt METAR EDDH 050120Z AUTO 25005KT CAVOK 13/10 Q1019 NOSIG
2:50 am
V
54 °F 6¼ mi+ - 240° 240° 4 kt METAR EDDH 050050Z AUTO 24004KT CAVOK 12/10 Q1019 NOSIG
2:20 am
V
55 °F 6¼ mi+ - 240° 240° 4 kt METAR EDDH 050020Z AUTO 24004KT CAVOK 13/10 Q1019 NOSIG
1:50 am
V
55 °F 6¼ mi+ - 240° 240° 5 kt METAR EDDH 042350Z AUTO 24005KT CAVOK 13/10 Q1019
1:20 am
V
55 °F 6¼ mi+ - 240° 240° 5 kt METAR EDDH 042320Z AUTO 24005KT CAVOK 13/10 Q1019 NOSIG
12:50 am
V
54 °F 6¼ mi+ - 240° 240° 4 kt METAR EDDH 042250Z AUTO 24004KT CAVOK 12/10 Q1019 NOSIG
12:20 am
V
54 °F 6¼ mi+ - 240° 240° 3 kt METAR EDDH 042220Z AUTO 24003KT CAVOK 12/10 Q1019 NOSIG

4 luglio 2022

Tempo Codice Tempo metereologico Temp. Vista Base nuvolosa Vento METAR/SPECI
11:50 pm
V
55 °F 6¼ mi+ - 230° 230° 4 kt METAR EDDH 042150Z AUTO 23004KT CAVOK 13/10 Q1019 NOSIG
11:20 pm
V
55 °F 6¼ mi+ - 230° 230° 3 kt METAR EDDH 042120Z AUTO 23003KT CAVOK 13/10 Q1019 NOSIG
10:50 pm
V
59 °F 6¼ mi+ - 240° 240° 4 kt METAR EDDH 042050Z AUTO 24004KT CAVOK 15/10 Q1019 NOSIG
10:20 pm
V
59 °F 6¼ mi+ - 260° 260° 3 kt METAR EDDH 042020Z AUTO 26003KT CAVOK 15/10 Q1019
9:50 pm
V
61 °F 6¼ mi+ - 300° 300° 5 kt METAR EDDH 041950Z AUTO 30005KT CAVOK 16/10 Q1019
9:20 pm
V
61 °F 6¼ mi+ - 310° 310° 9 kt METAR EDDH 041920Z AUTO 31009KT 9999 FEW035 16/10 Q1019 NOSIG
8:50 pm
V
63 °F 6¼ mi+ - 300° 300° 11 kt METAR EDDH 041850Z AUTO 30011KT 9999 FEW035 17/10 Q1018 BECMG 29006KT
8:20 pm
V
64 °F 6¼ mi+ - 300° 300° 12 kt METAR EDDH 041820Z AUTO 30012KT CAVOK 18/11 Q1018 BECMG 29007KT
7:50 pm
V
64 °F 6¼ mi+ - 310° 310° 13 kt METAR EDDH 041750Z AUTO 31013KT 9999 FEW044 18/11 Q1018 BECMG 29007KT
7:20 pm
V
66 °F 6¼ mi+ - 310° 310° 14 kt METAR EDDH 041720Z AUTO 31014KT 9999 FEW032 19/11 Q1018 BECMG 29007KT
6:50 pm
V
68 °F 6¼ mi+ - 300° 300° 13 kt METAR EDDH 041650Z AUTO 30013KT 270V330 9999 FEW035 20/12 Q1018 BECMG 29007KT
6:20 pm
V
70 °F 6¼ mi+ - 310° 310° 13 kt METAR EDDH 041620Z AUTO 31013KT 9999 FEW039 21/12 Q1017 NOSIG
5:50 pm
V
70 °F 6¼ mi+ - 310° 310° 12 kt METAR EDDH 041550Z AUTO 31012KT 280V350 9999 FEW047 21/12 Q1017 NOSIG
5:20 pm
V
72 °F 6¼ mi+ - 260° 260° 14 kt METAR EDDH 041520Z AUTO 26014KT 230V290 9999 FEW043 22/11 Q1017 NOSIG
4:50 pm
V
70 °F 6¼ mi+ - 270° 270° 10 kt METAR EDDH 041450Z AUTO 27010KT 220V310 9999 FEW041 21/12 Q1017 NOSIG
4:20 pm
V
70 °F 6¼ mi+ - 280° 280° 10 kt METAR EDDH 041420Z AUTO 28010KT 240V310 9999 FEW046 21/12 Q1018 NOSIG
3:50 pm
V
70 °F 6¼ mi+ - 280° 280° 10 kt METAR EDDH 041350Z AUTO 28010KT 240V310 9999 FEW044 21/11 Q1017 NOSIG
3:20 pm
V
68 °F 6¼ mi+ - 240° 240° 12 kt METAR EDDH 041320Z AUTO 24012KT CAVOK 20/10 Q1017 NOSIG
2:50 pm
V
73 °F 6¼ mi+ - 250° 250° 8 kt METAR EDDH 041250Z AUTO 25008KT 180V290 9999 FEW043 23/12 Q1017 NOSIG
2:20 pm
V
72 °F 6¼ mi+ - 240° 240° 8 kt METAR EDDH 041220Z AUTO 24008KT 210V290 CAVOK 22/12 Q1018 NOSIG
1:50 pm
V
70 °F 6¼ mi+ - 260° 260° 9 kt METAR EDDH 041150Z AUTO 26009KT 230V290 9999 FEW045 21/12 Q1018 NOSIG
1:20 pm
V
68 °F 6¼ mi+ - 250° 250° 9 kt METAR EDDH 041120Z AUTO 25009KT 210V280 9999 FEW041 20/11 Q1018 NOSIG
12:50 pm
V
68 °F 6¼ mi+ - 250° 250° 7 kt METAR EDDH 041050Z AUTO 25007KT 210V300 9999 SCT039 20/11 Q1018 NOSIG
12:20 pm
V
68 °F 6¼ mi+ - 250° 250° 10 kt METAR EDDH 041020Z AUTO 25010KT 200V290 9999 SCT036 20/12 Q1018 NOSIG
11:50 am
V
70 °F 6¼ mi+ - 240° 240° 11 kt METAR EDDH 040950Z AUTO 24011KT 200V270 9999 FEW034 SCT041 21/12 Q1018 NOSIG
11:20 am
V
68 °F 6¼ mi+ - 240° 240° 11 kt METAR EDDH 040920Z AUTO 24011KT 200V280 9999 FEW032 SCT039 20/11 Q1018 NOSIG
10:50 am
V
68 °F 6¼ mi+ - 250° 250° 11 - 22 kt METAR EDDH 040850Z AUTO 25011G22KT 200V290 9999 FEW032 20/12 Q1019 NOSIG
10:20 am
V
66 °F 6¼ mi+ - 250° 250° 10 kt METAR EDDH 040820Z AUTO 25010KT 220V310 9999 SCT028 19/11 Q1018 NOSIG
9:50 am
V
63 °F 6¼ mi+ 3.200 ft 260° 260° 9 kt METAR EDDH 040750Z AUTO 26009KT 220V300 9999 SCT023 BKN032 17/12 Q1018 NOSIG
9:20 am
M
64 °F 6¼ mi+ 2.700 ft 270° 270° 8 kt METAR EDDH 040720Z AUTO 27008KT 230V300 9999 SCT021 BKN027 18/12 Q1018 NOSIG
8:50 am
V
63 °F 6¼ mi+ - 260° 260° 10 kt METAR EDDH 040650Z AUTO 26010KT 190V310 9999 SCT019 17/12 Q1018 NOSIG
8:20 am
V
63 °F 6¼ mi+ - 240° 240° 9 kt METAR EDDH 040620Z AUTO 24009KT 9999 FEW016 17/13 Q1018 NOSIG
7:50 am
V
63 °F 6¼ mi+ - 250° 250° 9 kt METAR EDDH 040550Z AUTO 25009KT 210V290 CAVOK 17/13 Q1018 NOSIG
7:20 am
V
61 °F 6¼ mi+ - 250° 250° 6 kt METAR EDDH 040520Z AUTO 25006KT 220V280 CAVOK 16/13 Q1018 NOSIG
6:50 am
V
59 °F 6¼ mi+ - 240° 240° 6 kt METAR EDDH 040450Z AUTO 24006KT CAVOK 15/13 Q1018 NOSIG
6:20 am
V
57 °F 6¼ mi+ - 250° 250° 5 kt METAR EDDH 040420Z AUTO 25005KT 220V280 9999 FEW002 14/13 Q1018 NOSIG
5:50 am
V
55 °F 6¼ mi+ - 240° 240° 5 kt METAR EDDH 040350Z AUTO 24005KT 9999 FEW003 13/13 Q1018 TEMPO 4000 BR BKN002
5:20 am
V
55 °F 6¼ mi+ - 250° 250° 5 kt METAR EDDH 040320Z AUTO 25005KT CAVOK 13/13 Q1018 NOSIG
4:50 am
V
55 °F 5⅝ mi - 260° 260° 4 kt METAR EDDH 040250Z AUTO 26004KT 230V290 9000 FEW002 13/13 Q1017 TEMPO 4000 BR BKN002
4:20 am
V
55 °F 6¼ mi+ - 250° 250° 5 kt METAR EDDH 040220Z AUTO 25005KT 9999 FEW018 13/13 Q1017 NOSIG
3:50 am
V
55 °F 6¼ mi+ - 250° 250° 4 kt METAR EDDH 040150Z AUTO 25004KT CAVOK 13/13 Q1017 NOSIG
3:20 am
V
57 °F 6¼ mi+ - 260° 260° 5 kt METAR EDDH 040120Z AUTO 26005KT CAVOK 14/13 Q1017 NOSIG
2:50 am
V
55 °F 6¼ mi+ - 240° 240° 5 kt METAR EDDH 040050Z AUTO 24005KT 9999 FEW015 13/13 Q1017 TEMPO BKN014
2:20 am
V
57 °F 6¼ mi+ - 270° 270° 5 kt METAR EDDH 040020Z AUTO 27005KT 9999 FEW014 14/13 Q1017 TEMPO BKN014
1:50 am
V
57 °F 6¼ mi+ - 260° 260° 4 kt METAR EDDH 032350Z AUTO 26004KT CAVOK 14/13 Q1017 NOSIG
1:20 am
V
57 °F 6¼ mi+ - 260° 260° 3 kt METAR EDDH 032320Z AUTO 26003KT CAVOK 14/13 Q1017 NOSIG
12:50 am
V
57 °F 6¼ mi+ - 270° 270° 5 kt METAR EDDH 032250Z AUTO 27005KT CAVOK 14/13 Q1017 NOSIG
12:20 am
V
59 °F 6¼ mi+ - 270° 270° 5 kt METAR EDDH 032220Z AUTO 27005KT CAVOK 15/13 Q1017 NOSIG

3 luglio 2022

Tempo Codice Tempo metereologico Temp. Vista Base nuvolosa Vento METAR/SPECI
11:50 pm
V
59 °F 6¼ mi+ - 270° 270° 4 kt METAR EDDH 032150Z AUTO 27004KT 230V290 CAVOK 15/14 Q1017 NOSIG
11:20 pm
V
61 °F 6¼ mi+ - Var Var 2 kt METAR EDDH 032120Z AUTO VRB02KT CAVOK 16/15 Q1017 NOSIG
10:50 pm
V
61 °F 6¼ mi+ - 270° 270° 3 kt METAR EDDH 032050Z AUTO 27003KT CAVOK 16/15 Q1017 NOSIG
10:20 pm
V
61 °F 6¼ mi+ - 330° 330° 3 kt METAR EDDH 032020Z AUTO 33003KT 300V010 CAVOK 16/15 Q1017 NOSIG
9:50 pm
V
61 °F 6¼ mi+ - 320° 320° 3 kt METAR EDDH 031950Z AUTO 32003KT 280V010 9999 VCSH FEW///TCU 16/15 Q1017 RESHRA NOSIG
9:20 pm
V
63 °F 6¼ mi+ - 350° 350° 7 kt METAR EDDH 031920Z AUTO 35007KT 300V030 9999 SHRA FEW036 FEW///CB 17/15 Q1016 RETS BECMG NSW
8:50 pm
V
66 °F 6¼ mi+ - 310° 310° 12 kt METAR EDDH 031850Z AUTO 31012KT 9999 VCSH FEW///TCU 19/14 Q1017 TEMPO 31015G25KT 3500 TSRA BKN040CB
8:20 pm
V
66 °F 6¼ mi+ - 340° 340° 4 kt METAR EDDH 031820Z AUTO 34004KT 300V010 CAVOK 19/14 Q1016 TEMPO 31020G35KT 3500 TSRA BKN040CB
7:50 pm
V
70 °F 6¼ mi+ - 310° 310° 8 kt METAR EDDH 031750Z AUTO 31008KT CAVOK 21/14 Q1016 TEMPO SHRA SCT040CB
7:20 pm
V
70 °F 6¼ mi+ - 310° 310° 10 kt METAR EDDH 031720Z AUTO 31010KT CAVOK 21/14 Q1016 TEMPO SHRA SCT040CB
6:50 pm
V
68 °F 6¼ mi+ - 310° 310° 9 kt METAR EDDH 031650Z AUTO 31009KT CAVOK 20/14 Q1015 NOSIG
6:20 pm
V
68 °F 6¼ mi+ - 310° 310° 13 kt METAR EDDH 031620Z AUTO 31013KT CAVOK 20/13 Q1015 NOSIG
5:50 pm
V
70 °F 6¼ mi+ - 300° 300° 18 kt METAR EDDH 031550Z AUTO 30018KT CAVOK 21/13 Q1015 TEMPO 31015G25KT SHRA BKN040CB
5:20 pm
V
79 °F 6¼ mi+ - 250° 250° 8 kt METAR EDDH 031520Z AUTO 25008KT CAVOK 26/10 Q1015 TEMPO 28015G25KT SHRA BKN040CB
4:50 pm
V
82 °F 6¼ mi+ - 280° 280° 5 kt METAR EDDH 031450Z AUTO 28005KT 200V330 CAVOK 28/10 Q1015 TEMPO 29015G25KT SHRA BKN040CB
Dati più vecchi

Scarica la nostra applicazione

Facile accesso a tutte le previsioni dell'aviazione sul tuo cellulare e tablet.
Con molte caratteristiche non disponibili sul sito web, come il supporto offline e una lista personale di aeroporti.

Noi e le terze parti seguiamo il tuo comportamento in internet sul nostro sito web con i cookie. Se continui, riteniamo che tu sia d'accordo con la nostra politica sui cookie. Per saperne di più